createdAt,value
2019-02-26T00:01:50.717Z,89.40
2019-02-26T00:06:55.800Z,104.53
2019-02-26T00:12:01.524Z,110.67
2019-02-26T00:17:08.729Z,112.63
2019-02-26T00:22:13.869Z,113.40
2019-02-26T00:27:18.831Z,90.97
2019-02-26T00:32:23.565Z,87.43
2019-02-26T00:37:28.424Z,85.30
2019-02-26T00:42:36.056Z,86.70
2019-02-26T00:47:41.174Z,86.63
2019-02-26T00:52:47.038Z,69.73
2019-02-26T00:57:51.785Z,70.23
2019-02-26T01:02:56.524Z,81.40
2019-02-26T01:08:01.174Z,105.23
2019-02-26T01:13:07.266Z,87.53
2019-02-26T01:18:12.284Z,100.50
2019-02-26T01:23:18.729Z,78.23
2019-02-26T01:28:24.832Z,70.67
2019-02-26T01:33:30.283Z,52.93
2019-02-26T01:38:37.438Z,57.77
2019-02-26T01:43:41.938Z,62.07
2019-02-26T01:48:46.679Z,61.77
2019-02-26T01:53:53.271Z,56.90
2019-02-26T01:59:02.150Z,60.00
2019-02-26T02:04:03.887Z,59.57
2019-02-26T02:09:11.340Z,64.20
2019-02-26T02:14:17.065Z,58.73
2019-02-26T02:19:23.399Z,55.97
2019-02-26T02:24:28.275Z,55.40
2019-02-26T02:29:33.899Z,52.57
2019-02-26T02:34:40.037Z,52.37
2019-02-26T02:39:44.973Z,52.67
2019-02-26T02:44:52.564Z,54.90
2019-02-26T02:49:55.896Z,54.13
2019-02-26T02:55:00.722Z,143.77
2019-02-26T03:00:13.962Z,53.80
2019-02-26T03:05:18.810Z,57.63
2019-02-26T03:10:26.017Z,81.27
2019-02-26T03:15:32.782Z,72.27
2019-02-26T03:20:39.805Z,79.70
2019-02-26T03:25:44.517Z,78.50
2019-02-26T03:30:49.683Z,104.63
2019-02-26T03:35:54.441Z,80.53
2019-02-26T03:41:01.161Z,79.10
2019-02-26T03:46:05.451Z,71.70
2019-02-26T03:51:10.186Z,74.70
2019-02-26T03:56:17.068Z,69.90
2019-02-26T04:01:21.558Z,64.57
2019-02-26T04:06:26.363Z,62.60
2019-02-26T04:11:31.002Z,58.47
2019-02-26T04:16:37.780Z,54.50
2019-02-26T04:22:21.001Z,54.20
2019-02-26T04:27:48.098Z,45.30
2019-02-26T04:33:14.059Z,67.20
2019-02-26T04:38:34.241Z,65.50
2019-02-26T04:43:47.813Z,76.77
2019-02-26T04:48:52.644Z,94.20
2019-02-26T04:53:59.480Z,134.90
2019-02-26T04:59:06.208Z,147.13
2019-02-26T05:04:10.038Z,125.33
2019-02-26T05:09:15.954Z,135.60
2019-02-26T05:14:23.425Z,154.00
2019-02-26T05:19:27.129Z,149.27
2019-02-26T05:24:31.873Z,138.03
2019-02-26T05:29:40.418Z,127.57
2019-02-26T05:34:45.348Z,121.27
2019-02-26T05:39:51.692Z,153.90
2019-02-26T05:44:59.077Z,146.80
2019-02-26T05:50:03.806Z,166.80
2019-02-26T05:55:08.835Z,199.07
2019-02-26T06:00:18.220Z,183.37
2019-02-26T06:05:23.255Z,143.00
2019-02-26T06:10:29.841Z,142.03
2019-02-26T06:15:34.938Z,150.20
2019-02-26T06:20:40.003Z,131.17
2019-02-26T06:25:44.725Z,152.87
2019-02-26T06:30:50.585Z,112.03
2019-02-26T06:35:59.839Z,127.20
2019-02-26T06:41:06.557Z,103.77
2019-02-26T06:46:12.284Z,109.03
2019-02-26T06:51:19.081Z,77.33
2019-02-26T06:56:23.960Z,72.87
2019-02-26T07:01:32.376Z,70.23
2019-02-26T07:06:38.658Z,65.07
2019-02-26T07:11:43.408Z,65.53
2019-02-26T07:16:48.149Z,77.40
2019-02-26T07:21:53.081Z,72.00
2019-02-26T07:26:58.863Z,73.50
2019-02-26T07:32:03.507Z,70.07
2019-02-26T07:37:09.333Z,63.90
2019-02-26T07:42:16.430Z,43.67
2019-02-26T07:47:22.108Z,40.37
2019-02-26T07:52:28.444Z,45.63
2019-02-26T07:57:33.259Z,44.97
2019-02-26T08:02:38.001Z,49.90
2019-02-26T08:07:44.422Z,36.37
2019-02-26T08:12:48.795Z,48.87
2019-02-26T08:17:57.364Z,43.43
2019-02-26T08:23:01.360Z,38.73
2019-02-26T08:28:07.069Z,43.97
2019-02-26T08:33:11.711Z,58.37
2019-02-26T08:38:16.414Z,39.43
2019-02-26T08:43:21.309Z,50.07
2019-02-26T08:48:27.008Z,34.53
2019-02-26T08:53:32.251Z,36.93
2019-02-26T08:58:40.629Z,45.50
2019-02-26T09:03:45.540Z,34.23
2019-02-26T09:08:51.059Z,33.37
2019-02-26T09:13:59.617Z,33.47
2019-02-26T09:19:05.280Z,41.10
2019-02-26T09:24:10.166Z,35.87
2019-02-26T09:29:17.326Z,31.97
2019-02-26T09:34:26.025Z,33.23
2019-02-26T09:39:29.463Z,24.70
2019-02-26T09:44:35.916Z,32.73
2019-02-26T09:49:41.151Z,27.87
2019-02-26T09:54:48.104Z,44.77
2019-02-26T09:59:54.669Z,31.37
2019-02-26T10:04:58.615Z,22.90
2019-02-26T10:10:05.448Z,21.57
2019-02-26T10:15:13.849Z,21.43
2019-02-26T10:20:22.809Z,14.50
2019-02-26T10:25:29.376Z,19.77
2019-02-26T10:30:38.298Z,15.43
2019-02-26T10:35:45.085Z,11.20
2019-02-26T10:40:53.965Z,9.93
2019-02-26T10:45:56.670Z,16.93
2019-02-26T10:51:06.030Z,12.70
2019-02-26T10:56:09.637Z,28.27
2019-02-26T11:01:14.387Z,33.53
2019-02-26T11:06:19.652Z,30.30
2019-02-26T11:11:24.786Z,27.03
2019-02-26T11:16:31.035Z,27.07
2019-02-26T11:21:36.421Z,31.23
2019-02-26T11:26:45.534Z,25.90
2019-02-26T11:31:51.251Z,25.53
2019-02-26T11:37:02.795Z,28.70
2019-02-26T11:42:11.547Z,21.10
2019-02-26T11:47:20.533Z,21.70
2019-02-26T11:52:24.641Z,15.27
2019-02-26T11:57:30.222Z,16.93
2019-02-26T12:02:37.055Z,16.43
2019-02-26T12:07:42.852Z,24.37
2019-02-26T12:12:48.412Z,16.03
2019-02-26T12:17:54.546Z,17.13
2019-02-26T12:23:00.174Z,22.97
2019-02-26T12:28:10.767Z,17.10
2019-02-26T12:33:18.119Z,17.47
2019-02-26T12:38:25.250Z,37.03
2019-02-26T12:43:33.230Z,12.83
2019-02-26T12:48:41.801Z,12.50
2019-02-26T12:53:49.153Z,16.23
2019-02-26T12:58:54.440Z,11.93
2019-02-26T13:03:57.876Z,16.30
2019-02-26T13:09:02.736Z,14.73
2019-02-26T13:14:09.017Z,20.10
2019-02-26T13:19:21.408Z,19.50
2019-02-26T13:24:26.100Z,13.80
2019-02-26T13:29:28.155Z,22.53
2019-02-26T13:34:32.896Z,13.77
2019-02-26T13:39:38.446Z,21.63
2019-02-26T13:44:44.118Z,149.37
2019-02-26T13:49:48.964Z,50.07
2019-02-26T13:54:57.196Z,53.70
2019-02-26T14:00:01.838Z,20.27
2019-02-26T14:05:10.359Z,35.37
2019-02-26T14:10:26.681Z,42.37
2019-02-26T14:15:35.898Z,32.00
2019-02-26T14:20:40.663Z,61.80
2019-02-26T14:25:47.492Z,62.43
2019-02-26T14:30:54.120Z,70.47
2019-02-26T14:35:59.705Z,44.60
2019-02-26T14:41:04.920Z,65.40
2019-02-26T14:46:09.711Z,61.43
2019-02-26T14:51:14.551Z,27.33
2019-02-26T14:56:21.614Z,32.97
2019-02-26T15:01:27.954Z,36.10
2019-02-26T15:06:34.104Z,51.27
2019-02-26T15:11:41.031Z,53.63
2019-02-26T15:16:48.057Z,46.17
2019-02-26T15:21:54.672Z,43.43
2019-02-26T15:26:59.637Z,45.67
2019-02-26T15:32:04.263Z,57.80
2019-02-26T15:37:09.324Z,58.67
2019-02-26T15:42:20.951Z,84.97
2019-02-26T15:47:30.468Z,44.37
2019-02-26T15:52:36.335Z,54.50
2019-02-26T15:57:41.402Z,42.77
2019-02-26T16:02:47.686Z,39.83
2019-02-26T16:07:55.426Z,13.90
2019-02-26T16:13:04.802Z,56.07
2019-02-26T16:18:11.087Z,63.90
2019-02-26T16:23:15.872Z,42.60
2019-02-26T16:28:20.925Z,49.17
2019-02-26T16:33:27.202Z,63.03
2019-02-26T16:38:32.044Z,60.70
2019-02-26T16:43:38.344Z,20.20
2019-02-26T16:48:44.707Z,29.83
2019-02-26T16:53:49.550Z,23.27
2019-02-26T16:58:54.218Z,22.83
2019-02-26T17:03:59.550Z,19.47
2019-02-26T17:09:06.350Z,18.90
2019-02-26T17:14:14.767Z,23.47
2019-02-26T17:19:19.721Z,23.43
2019-02-26T17:24:24.803Z,25.03
2019-02-26T17:29:32.483Z,32.33
2019-02-26T17:34:42.742Z,34.50
2019-02-26T17:39:49.454Z,28.80
2019-02-26T17:44:55.111Z,27.90
2019-02-26T17:50:02.787Z,31.77
2019-02-26T17:55:10.331Z,32.13
2019-02-26T18:00:21.348Z,35.47
2019-02-26T18:05:26.166Z,32.27
2019-02-26T18:10:31.216Z,32.10
2019-02-26T18:15:36.081Z,35.27
2019-02-26T18:20:41.489Z,44.70
2019-02-26T18:25:46.172Z,32.00
2019-02-26T18:30:51.319Z,62.20
2019-02-26T18:35:56.588Z,46.63
2019-02-26T18:41:01.410Z,53.63
2019-02-26T18:46:06.262Z,76.37
2019-02-26T18:51:14.315Z,64.80
2019-02-26T18:56:19.552Z,61.47
2019-02-26T19:01:24.579Z,68.77
2019-02-26T19:06:29.324Z,30.90
2019-02-26T19:11:34.164Z,30.77
2019-02-26T19:16:38.911Z,33.93
2019-02-26T19:21:44.455Z,32.50
2019-02-26T19:26:49.211Z,38.03
2019-02-26T19:31:54.160Z,30.90
2019-02-26T19:37:00.542Z,38.37
2019-02-26T19:42:06.788Z,34.43
2019-02-26T19:47:11.582Z,39.10
2019-02-26T19:52:18.981Z,36.17
2019-02-26T19:57:30.188Z,38.47
2019-02-26T20:02:38.294Z,36.83
2019-02-26T20:07:45.793Z,39.03
2019-02-26T20:12:51.666Z,35.50
2019-02-26T20:17:58.059Z,32.30
2019-02-26T20:23:05.202Z,34.93
2019-02-26T20:28:09.368Z,35.50
2019-02-26T20:33:14.231Z,28.17
2019-02-26T20:38:19.527Z,33.90
2019-02-26T20:43:25.950Z,37.70
2019-02-26T20:48:30.915Z,38.20
2019-02-26T20:53:38.836Z,36.00
2019-02-26T20:58:44.937Z,33.13
2019-02-26T21:03:52.307Z,36.23
2019-02-26T21:08:57.145Z,35.20
2019-02-26T21:14:02.974Z,35.70
2019-02-26T21:19:07.991Z,31.37
2019-02-26T21:24:12.912Z,34.73
2019-02-26T21:29:17.751Z,34.87
2019-02-26T21:34:22.500Z,40.40
2019-02-26T21:39:27.348Z,38.57
2019-02-26T21:44:32.094Z,41.17
2019-02-26T21:49:37.395Z,35.00
2019-02-26T21:54:42.874Z,36.50
2019-02-26T21:59:50.187Z,31.13
2019-02-26T22:04:55.788Z,37.90
2019-02-26T22:10:00.628Z,30.33
2019-02-26T22:15:10.001Z,28.63
2019-02-26T22:20:23.418Z,28.80
2019-02-26T22:25:21.905Z,33.80
2019-02-26T22:30:28.425Z,36.67
2019-02-26T22:35:32.929Z,31.70
2019-02-26T22:40:37.667Z,33.70
2019-02-26T22:45:42.411Z,33.40
2019-02-26T22:50:47.151Z,32.87
2019-02-26T22:55:51.997Z,32.03
2019-02-26T23:01:01.119Z,27.77
2019-02-26T23:06:07.427Z,34.23
2019-02-26T23:11:14.854Z,35.63
2019-02-26T23:16:20.634Z,40.10
2019-02-26T23:21:26.072Z,48.33
2019-02-26T23:26:32.388Z,43.67
2019-02-26T23:31:37.181Z,42.13
2019-02-26T23:36:43.457Z,47.00
2019-02-26T23:41:49.233Z,42.67
2019-02-26T23:46:53.968Z,38.23
2019-02-26T23:51:59.577Z,39.13
2019-02-26T23:57:04.375Z,31.33
